sensor_id;sensor_type;location;lat;lon;timestamp;temperature;humidity
77985;DHT22;67177;47.240;-1.546;2023-02-16T00:00:35;9.00;79.20
77985;DHT22;67177;47.240;-1.546;2023-02-16T00:03:00;9.00;79.10
77985;DHT22;67177;47.240;-1.546;2023-02-16T00:05:29;9.00;79.10
77985;DHT22;67177;47.240;-1.546;2023-02-16T00:07:57;9.00;79.10
77985;DHT22;67177;47.240;-1.546;2023-02-16T00:10:24;9.00;79.10
77985;DHT22;67177;47.240;-1.546;2023-02-16T00:12:51;9.00;79.20
77985;DHT22;67177;47.240;-1.546;2023-02-16T00:15:35;8.90;79.20
77985;DHT22;67177;47.240;-1.546;2023-02-16T00:18:02;8.90;79.30
77985;DHT22;67177;47.240;-1.546;2023-02-16T00:20:30;8.90;79.30
77985;DHT22;67177;47.240;-1.546;2023-02-16T00:22:56;8.90;79.30
77985;DHT22;67177;47.240;-1.546;2023-02-16T00:25:22;8.90;79.40
77985;DHT22;67177;47.240;-1.546;2023-02-16T00:27:48;8.90;79.40
77985;DHT22;67177;47.240;-1.546;2023-02-16T00:30:17;8.90;79.50
77985;DHT22;67177;47.240;-1.546;2023-02-16T00:32:43;8.90;79.50
77985;DHT22;67177;47.240;-1.546;2023-02-16T00:35:17;8.90;79.60
77985;DHT22;67177;47.240;-1.546;2023-02-16T00:37:43;8.90;79.60
77985;DHT22;67177;47.240;-1.546;2023-02-16T00:40:09;8.90;79.70
77985;DHT22;67177;47.240;-1.546;2023-02-16T00:42:35;8.90;79.60
77985;DHT22;67177;47.240;-1.546;2023-02-16T00:45:02;8.90;79.60
77985;DHT22;67177;47.240;-1.546;2023-02-16T00:47:34;8.90;79.60
77985;DHT22;67177;47.240;-1.546;2023-02-16T00:50:26;8.90;79.50
77985;DHT22;67177;47.240;-1.546;2023-02-16T00:52:52;8.90;79.60
77985;DHT22;67177;47.240;-1.546;2023-02-16T00:55:22;8.90;79.60
77985;DHT22;67177;47.240;-1.546;2023-02-16T01:00:42;8.80;79.80
77985;DHT22;67177;47.240;-1.546;2023-02-16T01:03:10;8.80;79.80
77985;DHT22;67177;47.240;-1.546;2023-02-16T01:05:37;8.80;79.90
77985;DHT22;67177;47.240;-1.546;2023-02-16T01:08:08;8.80;79.90
77985;DHT22;67177;47.240;-1.546;2023-02-16T01:10:53;8.80;79.90
77985;DHT22;67177;47.240;-1.546;2023-02-16T01:13:27;8.80;80.00
77985;DHT22;67177;47.240;-1.546;2023-02-16T01:15:53;8.80;80.00
77985;DHT22;67177;47.240;-1.546;2023-02-16T01:18:19;8.80;79.90
77985;DHT22;67177;47.240;-1.546;2023-02-16T01:20:45;8.80;80.00
77985;DHT22;67177;47.240;-1.546;2023-02-16T01:23:12;8.80;80.10
77985;DHT22;67177;47.240;-1.546;2023-02-16T01:25:38;8.80;80.20
77985;DHT22;67177;47.240;-1.546;2023-02-16T01:28:20;8.80;80.20
77985;DHT22;67177;47.240;-1.546;2023-02-16T01:30:46;8.80;80.30
77985;DHT22;67177;47.240;-1.546;2023-02-16T01:33:12;8.80;80.30
77985;DHT22;67177;47.240;-1.546;2023-02-16T01:35:38;8.80;80.40
77985;DHT22;67177;47.240;-1.546;2023-02-16T01:38:03;8.80;80.40
77985;DHT22;67177;47.240;-1.546;2023-02-16T01:43:21;8.90;80.60
77985;DHT22;67177;47.240;-1.546;2023-02-16T01:46:04;8.90;80.40
77985;DHT22;67177;47.240;-1.546;2023-02-16T01:48:32;8.90;80.30
77985;DHT22;67177;47.240;-1.546;2023-02-16T01:51:20;8.90;80.40
77985;DHT22;67177;47.240;-1.546;2023-02-16T01:53:57;8.90;80.50
77985;DHT22;67177;47.240;-1.546;2023-02-16T01:56:40;8.80;80.60
77985;DHT22;67177;47.240;-1.546;2023-02-16T02:02:03;8.80;80.80
77985;DHT22;67177;47.240;-1.546;2023-02-16T02:04:44;8.80;80.90
77985;DHT22;67177;47.240;-1.546;2023-02-16T02:07:56;8.80;81.00
77985;DHT22;67177;47.240;-1.546;2023-02-16T02:14:02;8.70;81.20
77985;DHT22;67177;47.240;-1.546;2023-02-16T02:16:28;8.70;81.20
77985;DHT22;67177;47.240;-1.546;2023-02-16T02:18:54;8.70;81.10
77985;DHT22;67177;47.240;-1.546;2023-02-16T02:27:25;8.70;81.10
77985;DHT22;67177;47.240;-1.546;2023-02-16T02:30:07;8.80;81.00
77985;DHT22;67177;47.240;-1.546;2023-02-16T02:35:45;8.80;81.00
77985;DHT22;67177;47.240;-1.546;2023-02-16T02:38:21;8.80;81.00
77985;DHT22;67177;47.240;-1.546;2023-02-16T02:41:01;8.80;81.10
77985;DHT22;67177;47.240;-1.546;2023-02-16T02:46:29;8.80;81.00
77985;DHT22;67177;47.240;-1.546;2023-02-16T02:48:56;8.80;80.90
77985;DHT22;67177;47.240;-1.546;2023-02-16T02:51:22;8.80;80.90
77985;DHT22;67177;47.240;-1.546;2023-02-16T02:53:58;8.80;80.90
77985;DHT22;67177;47.240;-1.546;2023-02-16T02:56:53;8.80;80.90
77985;DHT22;67177;47.240;-1.546;2023-02-16T02:59:39;8.70;81.10
77985;DHT22;67177;47.240;-1.546;2023-02-16T03:02:27;8.70;81.00
77985;DHT22;67177;47.240;-1.546;2023-02-16T03:04:55;8.80;81.00
77985;DHT22;67177;47.240;-1.546;2023-02-16T03:07:22;8.70;81.00
77985;DHT22;67177;47.240;-1.546;2023-02-16T03:10:12;8.70;81.00
77985;DHT22;67177;47.240;-1.546;2023-02-16T03:12:57;8.80;81.00
77985;DHT22;67177;47.240;-1.546;2023-02-16T03:15:24;8.70;81.10
77985;DHT22;67177;47.240;-1.546;2023-02-16T03:17:51;8.70;81.10
77985;DHT22;67177;47.240;-1.546;2023-02-16T03:20:37;8.70;81.20
77985;DHT22;67177;47.240;-1.546;2023-02-16T03:23:21;8.70;81.10
77985;DHT22;67177;47.240;-1.546;2023-02-16T03:26:05;8.70;81.20
77985;DHT22;67177;47.240;-1.546;2023-02-16T03:28:50;8.70;81.20
77985;DHT22;67177;47.240;-1.546;2023-02-16T03:31:35;8.60;81.20
77985;DHT22;67177;47.240;-1.546;2023-02-16T03:34:06;8.60;81.30
77985;DHT22;67177;47.240;-1.546;2023-02-16T03:36:34;8.60;81.40
77985;DHT22;67177;47.240;-1.546;2023-02-16T03:39:02;8.60;81.30
77985;DHT22;67177;47.240;-1.546;2023-02-16T03:41:32;8.60;81.40
77985;DHT22;67177;47.240;-1.546;2023-02-16T03:43:58;8.60;81.40
77985;DHT22;67177;47.240;-1.546;2023-02-16T03:46:24;8.60;81.20
77985;DHT22;67177;47.240;-1.546;2023-02-16T03:48:50;8.60;81.30
77985;DHT22;67177;47.240;-1.546;2023-02-16T03:51:15;8.70;81.20
77985;DHT22;67177;47.240;-1.546;2023-02-16T03:53:41;8.60;81.20
77985;DHT22;67177;47.240;-1.546;2023-02-16T03:56:07;8.70;81.10
77985;DHT22;67177;47.240;-1.546;2023-02-16T03:58:32;8.70;81.00
77985;DHT22;67177;47.240;-1.546;2023-02-16T04:00:58;8.70;81.10
77985;DHT22;67177;47.240;-1.546;2023-02-16T04:03:25;8.70;81.00
77985;DHT22;67177;47.240;-1.546;2023-02-16T04:05:52;8.80;81.10
77985;DHT22;67177;47.240;-1.546;2023-02-16T04:08:17;8.70;80.90
77985;DHT22;67177;47.240;-1.546;2023-02-16T04:10:43;8.70;80.90
77985;DHT22;67177;47.240;-1.546;2023-02-16T04:13:09;8.80;80.80
77985;DHT22;67177;47.240;-1.546;2023-02-16T04:15:34;8.70;80.70
77985;DHT22;67177;47.240;-1.546;2023-02-16T04:18:00;8.70;80.70
77985;DHT22;67177;47.240;-1.546;2023-02-16T04:20:29;8.70;80.70
77985;DHT22;67177;47.240;-1.546;2023-02-16T04:22:56;8.70;80.70
77985;DHT22;67177;47.240;-1.546;2023-02-16T04:25:22;8.70;80.70
77985;DHT22;67177;47.240;-1.546;2023-02-16T04:27:48;8.70;80.70
77985;DHT22;67177;47.240;-1.546;2023-02-16T04:30:19;8.70;80.70
77985;DHT22;67177;47.240;-1.546;2023-02-16T04:32:45;8.70;80.60
77985;DHT22;67177;47.240;-1.546;2023-02-16T04:35:11;8.70;80.50
77985;DHT22;67177;47.240;-1.546;2023-02-16T04:37:37;8.80;80.40
77985;DHT22;67177;47.240;-1.546;2023-02-16T04:40:04;8.70;80.30
77985;DHT22;67177;47.240;-1.546;2023-02-16T04:42:30;8.70;80.30
77985;DHT22;67177;47.240;-1.546;2023-02-16T04:44:56;8.70;80.20
77985;DHT22;67177;47.240;-1.546;2023-02-16T04:47:21;8.70;80.20
77985;DHT22;67177;47.240;-1.546;2023-02-16T04:49:50;8.70;80.10
77985;DHT22;67177;47.240;-1.546;2023-02-16T04:52:16;8.70;80.20
77985;DHT22;67177;47.240;-1.546;2023-02-16T04:54:41;8.70;80.20
77985;DHT22;67177;47.240;-1.546;2023-02-16T04:57:08;8.70;80.20
77985;DHT22;67177;47.240;-1.546;2023-02-16T04:59:35;8.60;80.20
77985;DHT22;67177;47.240;-1.546;2023-02-16T05:02:01;8.70;80.20
77985;DHT22;67177;47.240;-1.546;2023-02-16T05:04:26;8.60;80.20
77985;DHT22;67177;47.240;-1.546;2023-02-16T05:06:52;8.70;80.00
77985;DHT22;67177;47.240;-1.546;2023-02-16T05:09:18;8.70;80.00
77985;DHT22;67177;47.240;-1.546;2023-02-16T05:11:43;8.70;80.00
77985;DHT22;67177;47.240;-1.546;2023-02-16T05:14:29;8.70;79.90
77985;DHT22;67177;47.240;-1.546;2023-02-16T05:17:17;8.70;79.70
77985;DHT22;67177;47.240;-1.546;2023-02-16T05:19:54;8.70;79.60
77985;DHT22;67177;47.240;-1.546;2023-02-16T05:22:20;8.70;79.70
77985;DHT22;67177;47.240;-1.546;2023-02-16T05:24:46;8.70;79.80
77985;DHT22;67177;47.240;-1.546;2023-02-16T05:27:20;8.70;79.70
77985;DHT22;67177;47.240;-1.546;2023-02-16T05:29:46;8.80;79.70
77985;DHT22;67177;47.240;-1.546;2023-02-16T05:32:12;8.70;79.70
77985;DHT22;67177;47.240;-1.546;2023-02-16T05:34:38;8.80;79.70
77985;DHT22;67177;47.240;-1.546;2023-02-16T05:37:03;8.70;79.60
77985;DHT22;67177;47.240;-1.546;2023-02-16T05:39:29;8.80;79.70
77985;DHT22;67177;47.240;-1.546;2023-02-16T05:41:55;8.80;79.70
77985;DHT22;67177;47.240;-1.546;2023-02-16T05:44:20;8.70;79.60
77985;DHT22;67177;47.240;-1.546;2023-02-16T05:46:46;8.80;79.70
77985;DHT22;67177;47.240;-1.546;2023-02-16T05:49:13;8.80;79.50
77985;DHT22;67177;47.240;-1.546;2023-02-16T05:51:39;8.80;79.40
77985;DHT22;67177;47.240;-1.546;2023-02-16T05:54:05;8.80;79.40
77985;DHT22;67177;47.240;-1.546;2023-02-16T05:56:31;8.80;79.40
77985;DHT22;67177;47.240;-1.546;2023-02-16T05:58:58;8.80;79.50
77985;DHT22;67177;47.240;-1.546;2023-02-16T06:01:25;8.90;79.50
77985;DHT22;67177;47.240;-1.546;2023-02-16T06:03:51;8.80;79.50
77985;DHT22;67177;47.240;-1.546;2023-02-16T06:06:17;8.80;79.50
77985;DHT22;67177;47.240;-1.546;2023-02-16T06:08:43;8.80;79.50
77985;DHT22;67177;47.240;-1.546;2023-02-16T06:11:08;8.90;79.50
77985;DHT22;67177;47.240;-1.546;2023-02-16T06:13:53;8.90;79.50
77985;DHT22;67177;47.240;-1.546;2023-02-16T06:16:29;8.90;79.40
77985;DHT22;67177;47.240;-1.546;2023-02-16T06:18:55;8.90;79.40
77985;DHT22;67177;47.240;-1.546;2023-02-16T06:21:22;8.90;79.40
77985;DHT22;67177;47.240;-1.546;2023-02-16T06:23:48;8.90;79.50
77985;DHT22;67177;47.240;-1.546;2023-02-16T06:26:15;8.90;79.50
77985;DHT22;67177;47.240;-1.546;2023-02-16T06:28:41;8.90;79.50
77985;DHT22;67177;47.240;-1.546;2023-02-16T06:31:06;8.90;79.50
77985;DHT22;67177;47.240;-1.546;2023-02-16T06:33:32;8.90;79.60
77985;DHT22;67177;47.240;-1.546;2023-02-16T06:35:58;8.90;79.60
77985;DHT22;67177;47.240;-1.546;2023-02-16T06:38:23;9.00;79.50
77985;DHT22;67177;47.240;-1.546;2023-02-16T06:40:52;9.00;79.50
77985;DHT22;67177;47.240;-1.546;2023-02-16T06:43:18;9.00;79.60
77985;DHT22;67177;47.240;-1.546;2023-02-16T06:45:44;9.10;79.50
77985;DHT22;67177;47.240;-1.546;2023-02-16T06:48:10;9.10;79.50
77985;DHT22;67177;47.240;-1.546;2023-02-16T06:50:35;9.10;79.50
77985;DHT22;67177;47.240;-1.546;2023-02-16T06:53:01;9.10;79.40
77985;DHT22;67177;47.240;-1.546;2023-02-16T06:55:27;9.10;79.40
77985;DHT22;67177;47.240;-1.546;2023-02-16T06:57:53;9.10;79.40
77985;DHT22;67177;47.240;-1.546;2023-02-16T07:00:18;9.10;79.50
77985;DHT22;67177;47.240;-1.546;2023-02-16T07:02:44;9.10;79.50
77985;DHT22;67177;47.240;-1.546;2023-02-16T07:05:11;9.10;79.50
77985;DHT22;67177;47.240;-1.546;2023-02-16T07:07:36;9.20;79.50
77985;DHT22;67177;47.240;-1.546;2023-02-16T07:10:03;9.20;79.50
77985;DHT22;67177;47.240;-1.546;2023-02-16T07:12:28;9.20;79.60
77985;DHT22;67177;47.240;-1.546;2023-02-16T07:14:54;9.20;79.60
77985;DHT22;67177;47.240;-1.546;2023-02-16T07:17:20;9.20;79.60
77985;DHT22;67177;47.240;-1.546;2023-02-16T07:19:45;9.30;79.60
77985;DHT22;67177;47.240;-1.546;2023-02-16T07:22:12;9.30;79.60
77985;DHT22;67177;47.240;-1.546;2023-02-16T07:24:37;9.30;79.60
77985;DHT22;67177;47.240;-1.546;2023-02-16T07:27:03;9.30;79.60
77985;DHT22;67177;47.240;-1.546;2023-02-16T07:29:29;9.30;79.70
77985;DHT22;67177;47.240;-1.546;2023-02-16T07:31:55;9.30;79.70
77985;DHT22;67177;47.240;-1.546;2023-02-16T07:34:22;9.40;79.70
77985;DHT22;67177;47.240;-1.546;2023-02-16T07:36:48;9.40;79.80
77985;DHT22;67177;47.240;-1.546;2023-02-16T07:39:13;9.40;79.70
77985;DHT22;67177;47.240;-1.546;2023-02-16T07:41:39;9.50;79.70
77985;DHT22;67177;47.240;-1.546;2023-02-16T07:44:05;9.50;79.60
77985;DHT22;67177;47.240;-1.546;2023-02-16T07:46:31;9.50;79.60
77985;DHT22;67177;47.240;-1.546;2023-02-16T07:48:56;9.60;79.60
77985;DHT22;67177;47.240;-1.546;2023-02-16T07:51:23;9.60;79.60
77985;DHT22;67177;47.240;-1.546;2023-02-16T07:53:49;9.60;79.60
77985;DHT22;67177;47.240;-1.546;2023-02-16T07:56:27;9.70;79.50
77985;DHT22;67177;47.240;-1.546;2023-02-16T07:58:57;9.70;79.50
77985;DHT22;67177;47.240;-1.546;2023-02-16T08:01:24;9.80;79.50
77985;DHT22;67177;47.240;-1.546;2023-02-16T08:03:50;9.80;79.60
77985;DHT22;67177;47.240;-1.546;2023-02-16T08:06:16;9.90;79.60
77985;DHT22;67177;47.240;-1.546;2023-02-16T08:08:42;9.80;79.60
77985;DHT22;67177;47.240;-1.546;2023-02-16T08:11:21;9.90;79.60
77985;DHT22;67177;47.240;-1.546;2023-02-16T08:13:47;9.90;79.50
77985;DHT22;67177;47.240;-1.546;2023-02-16T08:16:18;9.90;79.50
77985;DHT22;67177;47.240;-1.546;2023-02-16T08:18:44;9.90;79.50
77985;DHT22;67177;47.240;-1.546;2023-02-16T08:21:11;9.90;79.50
77985;DHT22;67177;47.240;-1.546;2023-02-16T08:23:51;9.90;79.60
77985;DHT22;67177;47.240;-1.546;2023-02-16T08:26:18;9.90;79.60
77985;DHT22;67177;47.240;-1.546;2023-02-16T08:28:45;10.00;79.60
77985;DHT22;67177;47.240;-1.546;2023-02-16T08:31:23;10.00;79.60
77985;DHT22;67177;47.240;-1.546;2023-02-16T08:33:53;10.10;79.60
77985;DHT22;67177;47.240;-1.546;2023-02-16T08:38:46;10.10;79.50
77985;DHT22;67177;47.240;-1.546;2023-02-16T08:41:14;10.20;79.40
77985;DHT22;67177;47.240;-1.546;2023-02-16T08:43:40;10.30;79.30
77985;DHT22;67177;47.240;-1.546;2023-02-16T08:46:06;10.40;79.20
77985;DHT22;67177;47.240;-1.546;2023-02-16T08:48:35;10.50;79.10
77985;DHT22;67177;47.240;-1.546;2023-02-16T08:51:02;10.60;79.10
77985;DHT22;67177;47.240;-1.546;2023-02-16T08:53:27;10.60;78.90
77985;DHT22;67177;47.240;-1.546;2023-02-16T08:55:58;10.70;78.90
77985;DHT22;67177;47.240;-1.546;2023-02-16T08:58:25;10.80;78.80
77985;DHT22;67177;47.240;-1.546;2023-02-16T09:00:51;10.90;78.70
77985;DHT22;67177;47.240;-1.546;2023-02-16T09:03:17;11.00;78.50
77985;DHT22;67177;47.240;-1.546;2023-02-16T09:05:44;11.20;78.40
77985;DHT22;67177;47.240;-1.546;2023-02-16T09:08:10;11.20;78.30
77985;DHT22;67177;47.240;-1.546;2023-02-16T09:10:36;11.30;78.10
77985;DHT22;67177;47.240;-1.546;2023-02-16T09:13:02;11.30;78.10
77985;DHT22;67177;47.240;-1.546;2023-02-16T09:15:28;11.40;77.90
77985;DHT22;67177;47.240;-1.546;2023-02-16T09:17:54;11.40;77.90
77985;DHT22;67177;47.240;-1.546;2023-02-16T09:20:20;11.40;78.00
77985;DHT22;67177;47.240;-1.546;2023-02-16T09:22:46;11.40;77.90
77985;DHT22;67177;47.240;-1.546;2023-02-16T09:25:12;11.40;78.00
77985;DHT22;67177;47.240;-1.546;2023-02-16T09:27:40;11.50;77.90
77985;DHT22;67177;47.240;-1.546;2023-02-16T09:30:06;11.50;77.90
77985;DHT22;67177;47.240;-1.546;2023-02-16T09:32:34;11.60;77.90
77985;DHT22;67177;47.240;-1.546;2023-02-16T09:35:00;11.70;77.70
77985;DHT22;67177;47.240;-1.546;2023-02-16T09:37:25;11.80;77.70
77985;DHT22;67177;47.240;-1.546;2023-02-16T09:39:51;11.90;77.40
77985;DHT22;67177;47.240;-1.546;2023-02-16T09:47:29;12.10;77.10
77985;DHT22;67177;47.240;-1.546;2023-02-16T09:50:00;12.10;77.10
77985;DHT22;67177;47.240;-1.546;2023-02-16T09:52:35;12.10;77.20
77985;DHT22;67177;47.240;-1.546;2023-02-16T09:55:06;12.00;77.20
77985;DHT22;67177;47.240;-1.546;2023-02-16T10:05:42;12.10;77.20
77985;DHT22;67177;47.240;-1.546;2023-02-16T10:08:24;12.10;77.10
77985;DHT22;67177;47.240;-1.546;2023-02-16T10:13:42;12.20;76.90
77985;DHT22;67177;47.240;-1.546;2023-02-16T10:16:29;12.30;76.90
77985;DHT22;67177;47.240;-1.546;2023-02-16T10:18:58;12.40;76.70
77985;DHT22;67177;47.240;-1.546;2023-02-16T10:21:27;12.40;76.70
77985;DHT22;67177;47.240;-1.546;2023-02-16T10:24:04;12.50;76.80
77985;DHT22;67177;47.240;-1.546;2023-02-16T10:26:40;12.50;76.70
77985;DHT22;67177;47.240;-1.546;2023-02-16T10:29:18;12.50;76.60
77985;DHT22;67177;47.240;-1.546;2023-02-16T10:37:22;12.80;76.40
77985;DHT22;67177;47.240;-1.546;2023-02-16T10:42:49;13.00;76.10
77985;DHT22;67177;47.240;-1.546;2023-02-16T10:48:15;13.20;75.90
77985;DHT22;67177;47.240;-1.546;2023-02-16T10:50:45;13.30;75.80
77985;DHT22;67177;47.240;-1.546;2023-02-16T10:53:20;13.50;75.60
77985;DHT22;67177;47.240;-1.546;2023-02-16T10:55:46;13.50;75.50
77985;DHT22;67177;47.240;-1.546;2023-02-16T10:58:35;13.50;75.50
77985;DHT22;67177;47.240;-1.546;2023-02-16T11:01:12;13.60;75.50
77985;DHT22;67177;47.240;-1.546;2023-02-16T11:03:48;13.70;75.30
77985;DHT22;67177;47.240;-1.546;2023-02-16T11:06:17;13.80;75.10
77985;DHT22;67177;47.240;-1.546;2023-02-16T11:11:16;14.10;74.70
77985;DHT22;67177;47.240;-1.546;2023-02-16T11:13:47;14.20;74.20
77985;DHT22;67177;47.240;-1.546;2023-02-16T11:16:19;14.30;74.00
77985;DHT22;67177;47.240;-1.546;2023-02-16T11:18:53;14.20;73.60
77985;DHT22;67177;47.240;-1.546;2023-02-16T11:21:20;14.30;73.60
77985;DHT22;67177;47.240;-1.546;2023-02-16T11:23:57;14.30;73.40
77985;DHT22;67177;47.240;-1.546;2023-02-16T11:26:25;14.30;73.20
77985;DHT22;67177;47.240;-1.546;2023-02-16T11:28:51;14.40;73.10
77985;DHT22;67177;47.240;-1.546;2023-02-16T11:36:40;14.40;71.80
77985;DHT22;67177;47.240;-1.546;2023-02-16T11:41:44;14.30;71.50
77985;DHT22;67177;47.240;-1.546;2023-02-16T11:46:47;14.30;70.90
77985;DHT22;67177;47.240;-1.546;2023-02-16T11:49:34;14.30;70.90
77985;DHT22;67177;47.240;-1.546;2023-02-16T11:52:16;14.30;70.60
77985;DHT22;67177;47.240;-1.546;2023-02-16T11:54:53;14.30;70.00
77985;DHT22;67177;47.240;-1.546;2023-02-16T11:57:34;14.30;70.00
77985;DHT22;67177;47.240;-1.546;2023-02-16T12:00:18;14.20;70.20
77985;DHT22;67177;47.240;-1.546;2023-02-16T12:05:51;14.10;70.30
77985;DHT22;67177;47.240;-1.546;2023-02-16T12:11:20;14.10;69.70
77985;DHT22;67177;47.240;-1.546;2023-02-16T12:16:38;14.20;69.10
77985;DHT22;67177;47.240;-1.546;2023-02-16T12:19:35;14.20;69.10
77985;DHT22;67177;47.240;-1.546;2023-02-16T12:38:30;14.10;67.00
77985;DHT22;67177;47.240;-1.546;2023-02-16T12:44:17;14.60;65.10
77985;DHT22;67177;47.240;-1.546;2023-02-16T12:46:46;14.60;64.10
77985;DHT22;67177;47.240;-1.546;2023-02-16T12:49:23;14.70;62.60
77985;DHT22;67177;47.240;-1.546;2023-02-16T12:52:05;14.70;62.90
77985;DHT22;67177;47.240;-1.546;2023-02-16T12:54:38;14.80;62.40
77985;DHT22;67177;47.240;-1.546;2023-02-16T12:57:12;14.90;60.50
77985;DHT22;67177;47.240;-1.546;2023-02-16T13:02:31;15.00;59.90
77985;DHT22;67177;47.240;-1.546;2023-02-16T13:05:02;15.00;59.10
77985;DHT22;67177;47.240;-1.546;2023-02-16T13:07:44;15.00;59.50
77985;DHT22;67177;47.240;-1.546;2023-02-16T13:10:18;15.00;58.10
77985;DHT22;67177;47.240;-1.546;2023-02-16T13:15:21;15.10;58.70
77985;DHT22;67177;47.240;-1.546;2023-02-16T13:18:45;15.10;58.70
77985;DHT22;67177;47.240;-1.546;2023-02-16T13:29:25;15.10;55.50
77985;DHT22;67177;47.240;-1.546;2023-02-16T13:46:04;14.80;57.00
77985;DHT22;67177;47.240;-1.546;2023-02-16T13:48:51;14.80;55.90
77985;DHT22;67177;47.240;-1.546;2023-02-16T13:51:23;14.70;55.80
77985;DHT22;67177;47.240;-1.546;2023-02-16T13:53:56;14.60;56.50
77985;DHT22;67177;47.240;-1.546;2023-02-16T14:01:46;14.80;57.80
77985;DHT22;67177;47.240;-1.546;2023-02-16T14:06:49;14.80;58.10
77985;DHT22;67177;47.240;-1.546;2023-02-16T14:14:45;14.60;57.40
77985;DHT22;67177;47.240;-1.546;2023-02-16T14:19:55;14.70;58.00
77985;DHT22;67177;47.240;-1.546;2023-02-16T14:22:30;14.70;58.30
77985;DHT22;67177;47.240;-1.546;2023-02-16T14:25:00;14.80;58.60
77985;DHT22;67177;47.240;-1.546;2023-02-16T14:27:47;14.80;58.90
77985;DHT22;67177;47.240;-1.546;2023-02-16T14:30:26;14.80;59.50
77985;DHT22;67177;47.240;-1.546;2023-02-16T14:35:33;14.80;59.90
77985;DHT22;67177;47.240;-1.546;2023-02-16T14:43:02;14.70;61.20
77985;DHT22;67177;47.240;-1.546;2023-02-16T14:54:13;14.50;62.60
77985;DHT22;67177;47.240;-1.546;2023-02-16T14:56:53;14.50;62.90
77985;DHT22;67177;47.240;-1.546;2023-02-16T15:02:31;14.70;63.20
77985;DHT22;67177;47.240;-1.546;2023-02-16T15:07:46;14.70;63.40
77985;DHT22;67177;47.240;-1.546;2023-02-16T15:10:25;14.70;63.60
77985;DHT22;67177;47.240;-1.546;2023-02-16T15:12:56;14.70;63.70
77985;DHT22;67177;47.240;-1.546;2023-02-16T15:17:57;14.70;64.10
77985;DHT22;67177;47.240;-1.546;2023-02-16T15:20:27;14.60;64.50
77985;DHT22;67177;47.240;-1.546;2023-02-16T15:22:57;14.50;64.80
77985;DHT22;67177;47.240;-1.546;2023-02-16T15:25:24;14.50;64.90
77985;DHT22;67177;47.240;-1.546;2023-02-16T15:30:29;14.40;65.30
77985;DHT22;67177;47.240;-1.546;2023-02-16T15:33:52;14.40;65.30
77985;DHT22;67177;47.240;-1.546;2023-02-16T15:35:51;14.40;65.50
77985;DHT22;67177;47.240;-1.546;2023-02-16T15:40:45;14.40;65.80
77985;DHT22;67177;47.240;-1.546;2023-02-16T15:45:39;14.40;66.20
77985;DHT22;67177;47.240;-1.546;2023-02-16T15:48:29;14.40;66.30
77985;DHT22;67177;47.240;-1.546;2023-02-16T15:53:49;14.30;66.60
77985;DHT22;67177;47.240;-1.546;2023-02-16T15:58:54;14.20;67.10
77985;DHT22;67177;47.240;-1.546;2023-02-16T16:01:26;14.20;67.50
77985;DHT22;67177;47.240;-1.546;2023-02-16T16:03:58;14.10;67.60
77985;DHT22;67177;47.240;-1.546;2023-02-16T16:06:31;14.10;67.90
77985;DHT22;67177;47.240;-1.546;2023-02-16T16:08:59;14.00;68.30
77985;DHT22;67177;47.240;-1.546;2023-02-16T16:11:25;14.00;68.30
77985;DHT22;67177;47.240;-1.546;2023-02-16T16:13:51;13.90;68.30
77985;DHT22;67177;47.240;-1.546;2023-02-16T16:16:16;13.90;68.70
77985;DHT22;67177;47.240;-1.546;2023-02-16T16:18:47;13.90;68.70
77985;DHT22;67177;47.240;-1.546;2023-02-16T16:21:26;13.80;68.80
77985;DHT22;67177;47.240;-1.546;2023-02-16T16:24:06;13.80;69.00
77985;DHT22;67177;47.240;-1.546;2023-02-16T16:26:54;13.70;69.20
77985;DHT22;67177;47.240;-1.546;2023-02-16T16:29:46;13.60;69.30
77985;DHT22;67177;47.240;-1.546;2023-02-16T16:32:25;13.60;69.70
77985;DHT22;67177;47.240;-1.546;2023-02-16T16:34:53;13.50;69.70
77985;DHT22;67177;47.240;-1.546;2023-02-16T16:37:36;13.50;69.90
77985;DHT22;67177;47.240;-1.546;2023-02-16T16:48:33;13.30;71.00
77985;DHT22;67177;47.240;-1.546;2023-02-16T16:53:52;13.10;72.20
77985;DHT22;67177;47.240;-1.546;2023-02-16T16:56:19;13.00;72.50
77985;DHT22;67177;47.240;-1.546;2023-02-16T16:58:49;13.00;72.80
77985;DHT22;67177;47.240;-1.546;2023-02-16T17:01:16;12.90;72.80
77985;DHT22;67177;47.240;-1.546;2023-02-16T17:03:42;12.90;73.70
77985;DHT22;67177;47.240;-1.546;2023-02-16T17:06:08;12.80;74.10
77985;DHT22;67177;47.240;-1.546;2023-02-16T17:08:34;12.70;74.40
77985;DHT22;67177;47.240;-1.546;2023-02-16T17:11:02;12.70;74.80
77985;DHT22;67177;47.240;-1.546;2023-02-16T17:13:27;12.60;74.80
77985;DHT22;67177;47.240;-1.546;2023-02-16T17:16:06;12.50;76.80
77985;DHT22;67177;47.240;-1.546;2023-02-16T17:18:34;12.40;76.10
77985;DHT22;67177;47.240;-1.546;2023-02-16T17:21:00;12.40;76.10
77985;DHT22;67177;47.240;-1.546;2023-02-16T17:23:25;12.40;76.00
77985;DHT22;67177;47.240;-1.546;2023-02-16T17:25:51;12.30;76.40
77985;DHT22;67177;47.240;-1.546;2023-02-16T17:28:18;12.30;76.90
77985;DHT22;67177;47.240;-1.546;2023-02-16T17:30:44;12.20;77.20
77985;DHT22;67177;47.240;-1.546;2023-02-16T17:33:10;12.20;77.30
77985;DHT22;67177;47.240;-1.546;2023-02-16T17:35:37;12.20;77.80
77985;DHT22;67177;47.240;-1.546;2023-02-16T17:38:10;12.10;78.00
77985;DHT22;67177;47.240;-1.546;2023-02-16T17:40:36;12.10;77.90
77985;DHT22;67177;47.240;-1.546;2023-02-16T17:43:10;12.10;78.60
77985;DHT22;67177;47.240;-1.546;2023-02-16T17:45:36;12.00;78.50
77985;DHT22;67177;47.240;-1.546;2023-02-16T17:48:01;12.00;78.40
77985;DHT22;67177;47.240;-1.546;2023-02-16T17:50:27;12.00;79.40
77985;DHT22;67177;47.240;-1.546;2023-02-16T17:52:54;12.00;79.20
77985;DHT22;67177;47.240;-1.546;2023-02-16T17:55:22;12.00;79.20
77985;DHT22;67177;47.240;-1.546;2023-02-16T17:57:47;12.00;79.30
77985;DHT22;67177;47.240;-1.546;2023-02-16T18:00:17;11.90;79.60
77985;DHT22;67177;47.240;-1.546;2023-02-16T18:02:43;11.90;79.60
77985;DHT22;67177;47.240;-1.546;2023-02-16T18:05:08;11.90;80.00
77985;DHT22;67177;47.240;-1.546;2023-02-16T18:07:34;11.90;80.00
77985;DHT22;67177;47.240;-1.546;2023-02-16T18:10:00;11.90;80.00
77985;DHT22;67177;47.240;-1.546;2023-02-16T18:12:25;11.90;80.10
77985;DHT22;67177;47.240;-1.546;2023-02-16T18:14:51;11.90;80.10
77985;DHT22;67177;47.240;-1.546;2023-02-16T18:17:17;11.90;80.30
77985;DHT22;67177;47.240;-1.546;2023-02-16T18:19:43;11.90;80.60
77985;DHT22;67177;47.240;-1.546;2023-02-16T18:22:08;11.90;81.20
77985;DHT22;67177;47.240;-1.546;2023-02-16T18:24:34;11.80;81.30
77985;DHT22;67177;47.240;-1.546;2023-02-16T18:27:00;11.80;81.20
77985;DHT22;67177;47.240;-1.546;2023-02-16T18:29:26;11.80;81.80
77985;DHT22;67177;47.240;-1.546;2023-02-16T18:31:51;11.80;81.60
77985;DHT22;67177;47.240;-1.546;2023-02-16T18:34:17;11.80;81.40
77985;DHT22;67177;47.240;-1.546;2023-02-16T18:36:42;11.80;81.40
77985;DHT22;67177;47.240;-1.546;2023-02-16T18:39:09;11.80;81.40
77985;DHT22;67177;47.240;-1.546;2023-02-16T18:41:35;11.80;81.50
77985;DHT22;67177;47.240;-1.546;2023-02-16T18:44:01;11.80;81.70
77985;DHT22;67177;47.240;-1.546;2023-02-16T18:46:27;11.80;81.90
77985;DHT22;67177;47.240;-1.546;2023-02-16T18:48:53;11.80;81.80